sensor_id;sensor_type;location;lat;lon;timestamp;pressure;altitude;pressure_sealevel;temperature;humidity
54172;BME280;40076;52.354;4.970;2023-05-01T00:02:09;101882.56;;;13.78;93.93
54172;BME280;40076;52.354;4.970;2023-05-01T00:04:35;101886.72;;;13.76;93.57
54172;BME280;40076;52.354;4.970;2023-05-01T00:07:01;101876.16;;;13.74;93.34
54172;BME280;40076;52.354;4.970;2023-05-01T00:09:26;101875.19;;;13.70;93.03
54172;BME280;40076;52.354;4.970;2023-05-01T00:11:52;101873.59;;;13.69;92.57
54172;BME280;40076;52.354;4.970;2023-05-01T00:14:17;101875.50;;;13.69;92.45
54172;BME280;40076;52.354;4.970;2023-05-01T00:16:42;101875.34;;;13.65;92.19
54172;BME280;40076;52.354;4.970;2023-05-01T00:19:08;101871.34;;;13.63;91.76
54172;BME280;40076;52.354;4.970;2023-05-01T00:21:33;101870.03;;;13.60;91.88
54172;BME280;40076;52.354;4.970;2023-05-01T00:23:58;101863.00;;;13.59;91.63
54172;BME280;40076;52.354;4.970;2023-05-01T00:26:24;101856.31;;;13.57;91.20
54172;BME280;40076;52.354;4.970;2023-05-01T00:28:53;101857.72;;;13.54;90.83
54172;BME280;40076;52.354;4.970;2023-05-01T00:31:19;101857.22;;;13.52;90.94
54172;BME280;40076;52.354;4.970;2023-05-01T00:33:44;101858.34;;;13.51;90.86
54172;BME280;40076;52.354;4.970;2023-05-01T00:36:09;101866.00;;;13.49;90.55
54172;BME280;40076;52.354;4.970;2023-05-01T00:38:35;101848.44;;;13.46;90.38
54172;BME280;40076;52.354;4.970;2023-05-01T00:41:00;101853.06;;;13.46;90.26
54172;BME280;40076;52.354;4.970;2023-05-01T00:43:26;101850.63;;;13.44;90.25
54172;BME280;40076;52.354;4.970;2023-05-01T00:45:51;101843.59;;;13.43;89.97
54172;BME280;40076;52.354;4.970;2023-05-01T00:48:16;101840.44;;;13.41;90.02
54172;BME280;40076;52.354;4.970;2023-05-01T00:50:43;101836.41;;;13.39;89.77
54172;BME280;40076;52.354;4.970;2023-05-01T00:53:09;101828.09;;;13.35;89.63
54172;BME280;40076;52.354;4.970;2023-05-01T00:55:35;101834.66;;;13.34;89.74
54172;BME280;40076;52.354;4.970;2023-05-01T00:58:01;101826.00;;;13.32;89.76
54172;BME280;40076;52.354;4.970;2023-05-01T01:00:27;101833.34;;;13.32;89.75
54172;BME280;40076;52.354;4.970;2023-05-01T01:02:53;101830.94;;;13.30;89.61
54172;BME280;40076;52.354;4.970;2023-05-01T01:05:20;101828.53;;;13.29;89.76
54172;BME280;40076;52.354;4.970;2023-05-01T01:07:55;101818.00;;;13.27;89.64
54172;BME280;40076;52.354;4.970;2023-05-01T01:10:39;101816.72;;;13.25;89.89
54172;BME280;40076;52.354;4.970;2023-05-01T01:13:21;101811.91;;;13.22;89.74
54172;BME280;40076;52.354;4.970;2023-05-01T01:16:24;101810.94;;;13.18;90.00
54172;BME280;40076;52.354;4.970;2023-05-01T01:18:57;101805.31;;;13.14;89.98
54172;BME280;40076;52.354;4.970;2023-05-01T01:21:40;101797.00;;;13.10;89.78
54172;BME280;40076;52.354;4.970;2023-05-01T01:27:26;101779.25;;;13.04;90.10
54172;BME280;40076;52.354;4.970;2023-05-01T01:36:05;101776.50;;;12.96;90.10
54172;BME280;40076;52.354;4.970;2023-05-01T01:41:50;101764.34;;;12.93;90.21
54172;BME280;40076;52.354;4.970;2023-05-01T01:44:46;101765.75;;;12.91;90.31
54172;BME280;40076;52.354;4.970;2023-05-01T01:47:14;101755.22;;;12.89;90.30
54172;BME280;40076;52.354;4.970;2023-05-01T01:49:45;101747.41;;;12.88;90.34
54172;BME280;40076;52.354;4.970;2023-05-01T01:52:15;101745.00;;;12.86;90.07
54172;BME280;40076;52.354;4.970;2023-05-01T01:54:51;101747.22;;;12.84;90.04
54172;BME280;40076;52.354;4.970;2023-05-01T01:57:19;101735.88;;;12.82;90.08
54172;BME280;40076;52.354;4.970;2023-05-01T01:59:46;101729.97;;;12.80;90.12
54172;BME280;40076;52.354;4.970;2023-05-01T02:02:14;101735.72;;;12.79;89.97
54172;BME280;40076;52.354;4.970;2023-05-01T02:04:41;101727.06;;;12.76;89.72
54172;BME280;40076;52.354;4.970;2023-05-01T02:07:09;101723.06;;;12.74;89.99
54172;BME280;40076;52.354;4.970;2023-05-01T02:09:36;101723.69;;;12.71;89.77
54172;BME280;40076;52.354;4.970;2023-05-01T02:12:05;101715.06;;;12.69;89.73
54172;BME280;40076;52.354;4.970;2023-05-01T02:14:32;101715.38;;;12.67;89.83
54172;BME280;40076;52.354;4.970;2023-05-01T02:16:58;101714.09;;;12.65;89.78
54172;BME280;40076;52.354;4.970;2023-05-01T02:19:24;101707.38;;;12.62;89.80
54172;BME280;40076;52.354;4.970;2023-05-01T02:21:52;101706.59;;;12.62;89.58
54172;BME280;40076;52.354;4.970;2023-05-01T02:24:21;101704.97;;;12.61;89.74
54172;BME280;40076;52.354;4.970;2023-05-01T02:26:52;101699.06;;;12.59;89.94
54172;BME280;40076;52.354;4.970;2023-05-01T02:29:19;101696.69;;;12.57;89.50
54172;BME280;40076;52.354;4.970;2023-05-01T02:31:45;101689.16;;;12.54;89.77
54172;BME280;40076;52.354;4.970;2023-05-01T02:34:10;101687.84;;;12.52;89.74
54172;BME280;40076;52.354;4.970;2023-05-01T02:36:36;101677.81;;;12.52;89.68
54172;BME280;40076;52.354;4.970;2023-05-01T02:39:02;101672.72;;;12.51;89.71
54172;BME280;40076;52.354;4.970;2023-05-01T02:41:28;101675.44;;;12.51;89.96
54172;BME280;40076;52.354;4.970;2023-05-01T02:43:59;101677.66;;;12.49;90.14
54172;BME280;40076;52.354;4.970;2023-05-01T02:46:25;101675.75;;;12.49;90.20
54172;BME280;40076;52.354;4.970;2023-05-01T02:48:53;101664.72;;;12.46;90.14
54172;BME280;40076;52.354;4.970;2023-05-01T02:51:19;101662.31;;;12.44;90.16
54172;BME280;40076;52.354;4.970;2023-05-01T02:53:45;101662.63;;;12.43;89.98
54172;BME280;40076;52.354;4.970;2023-05-01T02:56:11;101655.63;;;12.42;90.22
54172;BME280;40076;52.354;4.970;2023-05-01T02:58:37;101650.19;;;12.42;89.97
54172;BME280;40076;52.354;4.970;2023-05-01T03:01:02;101650.50;;;12.40;89.96
54172;BME280;40076;52.354;4.970;2023-05-01T03:03:27;101648.59;;;12.41;90.26
54172;BME280;40076;52.354;4.970;2023-05-01T03:05:53;101647.00;;;12.40;90.27
54172;BME280;40076;52.354;4.970;2023-05-01T03:08:18;101648.91;;;12.39;90.46
54172;BME280;40076;52.354;4.970;2023-05-01T03:10:44;101644.59;;;12.38;90.45
54172;BME280;40076;52.354;4.970;2023-05-01T03:13:10;101655.41;;;12.38;90.42
54172;BME280;40076;52.354;4.970;2023-05-01T03:15:36;101657.63;;;12.36;90.20
54172;BME280;40076;52.354;4.970;2023-05-01T03:18:02;101662.59;;;12.34;90.58
54172;BME280;40076;52.354;4.970;2023-05-01T03:20:27;101662.38;;;12.30;90.93
54172;BME280;40076;52.354;4.970;2023-05-01T03:22:53;101660.31;;;12.27;91.39
54172;BME280;40076;52.354;4.970;2023-05-01T03:25:18;101649.28;;;12.24;91.58
54172;BME280;40076;52.354;4.970;2023-05-01T03:27:43;101637.94;;;12.22;91.58
54172;BME280;40076;52.354;4.970;2023-05-01T03:30:09;101635.38;;;12.17;91.78
54172;BME280;40076;52.354;4.970;2023-05-01T03:32:35;101639.03;;;12.12;91.91
54172;BME280;40076;52.354;4.970;2023-05-01T03:35:01;101641.53;;;12.09;92.44
54172;BME280;40076;52.354;4.970;2023-05-01T03:37:27;101635.63;;;12.07;92.80
54172;BME280;40076;52.354;4.970;2023-05-01T03:39:52;101641.38;;;12.05;92.92
54172;BME280;40076;52.354;4.970;2023-05-01T03:42:18;101631.94;;;12.03;93.31
54172;BME280;40076;52.354;4.970;2023-05-01T03:44:43;101629.03;;;11.99;93.73
54172;BME280;40076;52.354;4.970;2023-05-01T03:47:09;101623.75;;;11.94;93.97
54172;BME280;40076;52.354;4.970;2023-05-01T03:49:34;101621.66;;;11.91;94.13
54172;BME280;40076;52.354;4.970;2023-05-01T03:52:00;101622.28;;;11.88;94.09
54172;BME280;40076;52.354;4.970;2023-05-01T03:54:25;101628.31;;;11.85;94.18
54172;BME280;40076;52.354;4.970;2023-05-01T03:56:51;101626.25;;;11.82;94.61
54172;BME280;40076;52.354;4.970;2023-05-01T03:59:16;101625.72;;;11.80;94.89
54172;BME280;40076;52.354;4.970;2023-05-01T04:01:42;101616.31;;;11.77;95.01
54172;BME280;40076;52.354;4.970;2023-05-01T04:04:08;101615.03;;;11.75;95.27
54172;BME280;40076;52.354;4.970;2023-05-01T04:06:33;101614.50;;;11.73;95.36
54172;BME280;40076;52.354;4.970;2023-05-01T04:08:59;101625.63;;;11.71;95.47
54172;BME280;40076;52.354;4.970;2023-05-01T04:11:25;101618.13;;;11.68;95.86
54172;BME280;40076;52.354;4.970;2023-05-01T04:13:51;101614.13;;;11.66;96.17
54172;BME280;40076;52.354;4.970;2023-05-01T04:16:16;101612.53;;;11.65;96.42
54172;BME280;40076;52.354;4.970;2023-05-01T04:18:42;101613.13;;;11.61;96.53
54172;BME280;40076;52.354;4.970;2023-05-01T04:21:07;101610.25;;;11.58;96.90
54172;BME280;40076;52.354;4.970;2023-05-01T04:23:32;101615.16;;;11.56;97.09
54172;BME280;40076;52.354;4.970;2023-05-01T04:25:58;101611.16;;;11.53;97.29
54172;BME280;40076;52.354;4.970;2023-05-01T04:28:23;101609.88;;;11.51;97.70
54172;BME280;40076;52.354;4.970;2023-05-01T04:30:48;101606.66;;;11.49;97.98
54172;BME280;40076;52.354;4.970;2023-05-01T04:33:14;101606.97;;;11.47;98.11
54172;BME280;40076;52.354;4.970;2023-05-01T04:35:40;101605.38;;;11.46;98.44
54172;BME280;40076;52.354;4.970;2023-05-01T04:38:06;101607.25;;;11.46;98.70
54172;BME280;40076;52.354;4.970;2023-05-01T04:40:32;101607.56;;;11.44;98.98
54172;BME280;40076;52.354;4.970;2023-05-01T04:42:58;101609.78;;;11.42;99.27
54172;BME280;40076;52.354;4.970;2023-05-01T04:45:23;101605.19;;;11.43;99.47
54172;BME280;40076;52.354;4.970;2023-05-01T04:47:48;101604.38;;;11.42;99.64
54172;BME280;40076;52.354;4.970;2023-05-01T04:50:14;101605.50;;;11.41;100.00
54172;BME280;40076;52.354;4.970;2023-05-01T04:52:39;101605.50;;;11.41;99.99
54172;BME280;40076;52.354;4.970;2023-05-01T04:55:05;101605.78;;;11.40;100.00
54172;BME280;40076;52.354;4.970;2023-05-01T04:57:31;101599.56;;;11.39;100.00
54172;BME280;40076;52.354;4.970;2023-05-01T04:59:56;101597.66;;;11.40;100.00
54172;BME280;40076;52.354;4.970;2023-05-01T05:02:22;101599.56;;;11.39;100.00
54172;BME280;40076;52.354;4.970;2023-05-01T05:04:47;101599.56;;;11.39;100.00
54172;BME280;40076;52.354;4.970;2023-05-01T05:07:12;101596.06;;;11.39;100.00
54172;BME280;40076;52.354;4.970;2023-05-01T05:09:37;101596.06;;;11.39;100.00
54172;BME280;40076;52.354;4.970;2023-05-01T05:12:03;101596.88;;;11.39;100.00
54172;BME280;40076;52.354;4.970;2023-05-01T05:14:29;101598.47;;;11.40;100.00
54172;BME280;40076;52.354;4.970;2023-05-01T05:16:55;101600.06;;;11.41;100.00
54172;BME280;40076;52.354;4.970;2023-05-01T05:19:20;101602.78;;;11.41;100.00
54172;BME280;40076;52.354;4.970;2023-05-01T05:21:45;101600.56;;;11.43;100.00
54172;BME280;40076;52.354;4.970;2023-05-01T05:24:11;101599.44;;;11.44;100.00
54172;BME280;40076;52.354;4.970;2023-05-01T05:26:36;101590.22;;;11.45;100.00
54172;BME280;40076;52.354;4.970;2023-05-01T05:29:02;101596.13;;;11.47;100.00
54172;BME280;40076;52.354;4.970;2023-05-01T05:31:28;101589.31;;;11.50;100.00
54172;BME280;40076;52.354;4.970;2023-05-01T05:33:53;101601.44;;;11.52;100.00
54172;BME280;40076;52.354;4.970;2023-05-01T05:36:18;101591.09;;;11.54;100.00
54172;BME280;40076;52.354;4.970;2023-05-01T05:38:43;101592.72;;;11.55;100.00
54172;BME280;40076;52.354;4.970;2023-05-01T05:41:09;101595.63;;;11.59;100.00
54172;BME280;40076;52.354;4.970;2023-05-01T05:43:34;101599.59;;;11.61;100.00
54172;BME280;40076;52.354;4.970;2023-05-01T05:46:00;101590.06;;;11.64;100.00
54172;BME280;40076;52.354;4.970;2023-05-01T05:48:25;101591.69;;;11.65;100.00
54172;BME280;40076;52.354;4.970;2023-05-01T05:50:51;101599.16;;;11.68;100.00
54172;BME280;40076;52.354;4.970;2023-05-01T05:53:18;101594.25;;;11.70;100.00
54172;BME280;40076;52.354;4.970;2023-05-01T05:55:45;101590.44;;;11.71;100.00
54172;BME280;40076;52.354;4.970;2023-05-01T05:58:11;101583.63;;;11.74;100.00
54172;BME280;40076;52.354;4.970;2023-05-01T06:00:36;101579.03;;;11.74;100.00
54172;BME280;40076;52.354;4.970;2023-05-01T06:03:01;101572.97;;;11.77;100.00
54172;BME280;40076;52.354;4.970;2023-05-01T06:05:27;101574.88;;;11.77;100.00
54172;BME280;40076;52.354;4.970;2023-05-01T06:07:53;101576.19;;;11.79;100.00
54172;BME280;40076;52.354;4.970;2023-05-01T06:10:19;101573.97;;;11.81;100.00
54172;BME280;40076;52.354;4.970;2023-05-01T06:12:44;101569.38;;;11.82;100.00
54172;BME280;40076;52.354;4.970;2023-05-01T06:15:09;101575.25;;;11.84;100.00
54172;BME280;40076;52.354;4.970;2023-05-01T06:17:35;101572.75;;;11.87;100.00
54172;BME280;40076;52.354;4.970;2023-05-01T06:20:02;101568.94;;;11.88;100.00
54172;BME280;40076;52.354;4.970;2023-05-01T06:22:30;101572.09;;;11.90;100.00
54172;BME280;40076;52.354;4.970;2023-05-01T06:24:55;101574.50;;;11.92;100.00
54172;BME280;40076;52.354;4.970;2023-05-01T06:27:20;101569.59;;;11.94;100.00
54172;BME280;40076;52.354;4.970;2023-05-01T06:29:45;101574.41;;;11.97;100.00
54172;BME280;40076;52.354;4.970;2023-05-01T06:32:11;101564.03;;;11.99;100.00
54172;BME280;40076;52.354;4.970;2023-05-01T06:34:36;101573.47;;;12.02;100.00
54172;BME280;40076;52.354;4.970;2023-05-01T06:37:01;101566.63;;;12.04;100.00
54172;BME280;40076;52.354;4.970;2023-05-01T06:39:29;101571.41;;;12.07;100.00
54172;BME280;40076;52.354;4.970;2023-05-01T06:41:54;101570.00;;;12.10;100.00
54172;BME280;40076;52.354;4.970;2023-05-01T06:44:20;101570.50;;;12.12;100.00
54172;BME280;40076;52.354;4.970;2023-05-01T06:46:47;101571.75;;;12.14;100.00
54172;BME280;40076;52.354;4.970;2023-05-01T06:49:12;101569.56;;;12.16;100.00
54172;BME280;40076;52.354;4.970;2023-05-01T06:51:38;101563.19;;;12.21;100.00
54172;BME280;40076;52.354;4.970;2023-05-01T06:54:03;101568.00;;;12.24;100.00
54172;BME280;40076;52.354;4.970;2023-05-01T06:56:28;101572.81;;;12.27;100.00
54172;BME280;40076;52.354;4.970;2023-05-01T06:58:54;101574.06;;;12.29;100.00
54172;BME280;40076;52.354;4.970;2023-05-01T07:01:19;101571.06;;;12.31;100.00
54172;BME280;40076;52.354;4.970;2023-05-01T07:03:45;101563.13;;;12.34;99.92
54172;BME280;40076;52.354;4.970;2023-05-01T07:06:10;101566.28;;;12.36;100.00
54172;BME280;40076;52.354;4.970;2023-05-01T07:08:35;101570.00;;;12.41;100.00
54172;BME280;40076;52.354;4.970;2023-05-01T07:11:01;101574.00;;;12.43;100.00
54172;BME280;40076;52.354;4.970;2023-05-01T07:13:26;101566.63;;;12.44;100.00
54172;BME280;40076;52.354;4.970;2023-05-01T07:15:51;101574.16;;;12.47;100.00
54172;BME280;40076;52.354;4.970;2023-05-01T07:18:17;101567.63;;;12.48;99.83
54172;BME280;40076;52.354;4.970;2023-05-01T07:20:43;101569.72;;;12.51;99.51
54172;BME280;40076;52.354;4.970;2023-05-01T07:23:08;101569.06;;;12.54;99.47
54172;BME280;40076;52.354;4.970;2023-05-01T07:25:34;101566.56;;;12.57;99.83
54172;BME280;40076;52.354;4.970;2023-05-01T07:28:02;101568.63;;;12.60;99.72
54172;BME280;40076;52.354;4.970;2023-05-01T07:30:28;101565.28;;;12.63;100.00
54172;BME280;40076;52.354;4.970;2023-05-01T07:32:55;101565.44;;;12.67;100.00
54172;BME280;40076;52.354;4.970;2023-05-01T07:35:21;101561.00;;;12.71;100.00
54172;BME280;40076;52.354;4.970;2023-05-01T07:37:48;101563.88;;;12.74;100.00
54172;BME280;40076;52.354;4.970;2023-05-01T07:40:15;101561.03;;;12.80;100.00
54172;BME280;40076;52.354;4.970;2023-05-01T07:42:42;101558.78;;;12.82;100.00
54172;BME280;40076;52.354;4.970;2023-05-01T07:45:07;101554.34;;;12.86;100.00
54172;BME280;40076;52.354;4.970;2023-05-01T07:47:33;101559.59;;;12.91;100.00
54172;BME280;40076;52.354;4.970;2023-05-01T07:49:59;101555.47;;;12.93;100.00
54172;BME280;40076;52.354;4.970;2023-05-01T07:52:25;101557.56;;;12.96;100.00
54172;BME280;40076;52.354;4.970;2023-05-01T07:54:51;101558.81;;;12.99;100.00
54172;BME280;40076;52.354;4.970;2023-05-01T07:57:16;101561.41;;;13.04;100.00
54172;BME280;40076;52.354;4.970;2023-05-01T07:59:41;101559.16;;;13.06;99.80
54172;BME280;40076;52.354;4.970;2023-05-01T08:02:07;101567.78;;;13.08;99.79
54172;BME280;40076;52.354;4.970;2023-05-01T08:04:32;101562.84;;;13.10;100.00
54172;BME280;40076;52.354;4.970;2023-05-01T08:06:57;101558.38;;;13.14;99.38
54172;BME280;40076;52.354;4.970;2023-05-01T08:09:23;101560.78;;;13.16;98.70
54172;BME280;40076;52.354;4.970;2023-05-01T08:11:48;101561.28;;;13.18;98.62
54172;BME280;40076;52.354;4.970;2023-05-01T08:14:13;101559.06;;;13.20;98.21
54172;BME280;40076;52.354;4.970;2023-05-01T08:16:41;101560.31;;;13.22;98.34
54172;BME280;40076;52.354;4.970;2023-05-01T08:19:07;101573.25;;;13.25;98.42
54172;BME280;40076;52.354;4.970;2023-05-01T08:21:32;101560.94;;;13.28;98.14
54172;BME280;40076;52.354;4.970;2023-05-01T08:23:58;101569.25;;;13.31;97.62
54172;BME280;40076;52.354;4.970;2023-05-01T08:26:23;101563.53;;;13.33;97.18
54172;BME280;40076;52.354;4.970;2023-05-01T08:28:49;101564.47;;;13.37;96.95
54172;BME280;40076;52.354;4.970;2023-05-01T08:31:14;101576.28;;;13.41;96.03
54172;BME280;40076;52.354;4.970;2023-05-01T08:33:40;101569.41;;;13.43;94.78
54172;BME280;40076;52.354;4.970;2023-05-01T08:36:06;101571.19;;;13.48;93.77
54172;BME280;40076;52.354;4.970;2023-05-01T08:38:32;101575.16;;;13.50;92.57
54172;BME280;40076;52.354;4.970;2023-05-01T08:40:58;101575.63;;;13.52;90.96
54172;BME280;40076;52.354;4.970;2023-05-01T08:43:34;101581.25;;;13.56;89.78
54172;BME280;40076;52.354;4.970;2023-05-01T08:46:00;101577.06;;;13.59;88.17
54172;BME280;40076;52.354;4.970;2023-05-01T08:48:27;101582.66;;;13.62;88.34
54172;BME280;40076;52.354;4.970;2023-05-01T08:50:55;101577.38;;;13.66;88.52
54172;BME280;40076;52.354;4.970;2023-05-01T08:53:24;101581.88;;;13.70;88.73
54172;BME280;40076;52.354;4.970;2023-05-01T08:55:50;101570.03;;;13.75;88.89
54172;BME280;40076;52.354;4.970;2023-05-01T08:58:17;101572.59;;;13.80;89.10
54172;BME280;40076;52.354;4.970;2023-05-01T09:00:44;101571.13;;;13.82;89.02
54172;BME280;40076;52.354;4.970;2023-05-01T09:03:14;101570.50;;;13.85;88.97
54172;BME280;40076;52.354;4.970;2023-05-01T09:05:42;101569.19;;;13.91;88.97
54172;BME280;40076;52.354;4.970;2023-05-01T09:08:08;101572.41;;;13.94;89.38
54172;BME280;40076;52.354;4.970;2023-05-01T09:10:41;101575.72;;;13.99;89.40
54172;BME280;40076;52.354;4.970;2023-05-01T09:13:08;101572.38;;;14.02;89.02
54172;BME280;40076;52.354;4.970;2023-05-01T09:15:34;101579.56;;;14.07;88.83
54172;BME280;40076;52.354;4.970;2023-05-01T09:17:59;101578.91;;;14.10;88.87
54172;BME280;40076;52.354;4.970;2023-05-01T09:20:25;101576.81;;;14.15;88.59
54172;BME280;40076;52.354;4.970;2023-05-01T09:22:51;101571.50;;;14.19;89.23
54172;BME280;40076;52.354;4.970;2023-05-01T09:25:16;101572.94;;;14.25;89.51
54172;BME280;40076;52.354;4.970;2023-05-01T09:27:43;101577.09;;;14.31;89.08
54172;BME280;40076;52.354;4.970;2023-05-01T09:30:28;101579.00;;;14.39;89.11
54172;BME280;40076;52.354;4.970;2023-05-01T09:33:04;101578.97;;;14.48;88.77
54172;BME280;40076;52.354;4.970;2023-05-01T09:35:30;101580.38;;;14.54;88.16
54172;BME280;40076;52.354;4.970;2023-05-01T09:37:56;101580.66;;;14.61;87.01
54172;BME280;40076;52.354;4.970;2023-05-01T09:40:26;101586.72;;;14.66;86.75
54172;BME280;40076;52.354;4.970;2023-05-01T09:42:52;101585.88;;;14.75;87.14
54172;BME280;40076;52.354;4.970;2023-05-01T09:45:19;101584.22;;;14.82;88.04
54172;BME280;40076;52.354;4.970;2023-05-01T09:47:45;101582.56;;;14.90;86.62
54172;BME280;40076;52.354;4.970;2023-05-01T09:50:30;101579.00;;;14.98;86.70
54172;BME280;40076;52.354;4.970;2023-05-01T09:52:56;101583.81;;;15.01;87.07
54172;BME280;40076;52.354;4.970;2023-05-01T09:55:21;101587.13;;;15.06;86.44
54172;BME280;40076;52.354;4.970;2023-05-01T09:57:50;101592.34;;;15.12;86.15
54172;BME280;40076;52.354;4.970;2023-05-01T10:00:16;101592.19;;;15.17;85.69
54172;BME280;40076;52.354;4.970;2023-05-01T10:02:45;101597.75;;;15.20;85.89
54172;BME280;40076;52.354;4.970;2023-05-01T10:05:12;101597.56;;;15.25;84.18
54172;BME280;40076;52.354;4.970;2023-05-01T10:07:38;101593.50;;;15.31;83.51
54172;BME280;40076;52.354;4.970;2023-05-01T10:10:20;101601.94;;;15.38;83.38
54172;BME280;40076;52.354;4.970;2023-05-01T10:12:46;101598.53;;;15.41;82.34
54172;BME280;40076;52.354;4.970;2023-05-01T10:15:11;101599.16;;;15.47;81.84
54172;BME280;40076;52.354;4.970;2023-05-01T10:17:38;101604.41;;;15.52;82.11
54172;BME280;40076;52.354;4.970;2023-05-01T10:20:07;101600.69;;;15.57;82.06
54172;BME280;40076;52.354;4.970;2023-05-01T10:22:33;101608.69;;;15.62;81.17
54172;BME280;40076;52.354;4.970;2023-05-01T10:24:59;101616.31;;;15.68;80.77
54172;BME280;40076;52.354;4.970;2023-05-01T10:27:25;101609.84;;;15.73;79.80
54172;BME280;40076;52.354;4.970;2023-05-01T10:29:53;101615.13;;;15.78;79.39
54172;BME280;40076;52.354;4.970;2023-05-01T10:32:19;101609.91;;;15.85;79.06
54172;BME280;40076;52.354;4.970;2023-05-01T10:34:51;101618.34;;;15.92;79.18
54172;BME280;40076;52.354;4.970;2023-05-01T10:37:21;101616.84;;;15.95;77.75
54172;BME280;40076;52.354;4.970;2023-05-01T10:39:48;101613.13;;;15.99;77.95
54172;BME280;40076;52.354;4.970;2023-05-01T10:42:14;101615.97;;;16.03;78.94
54172;BME280;40076;52.354;4.970;2023-05-01T10:44:40;101612.59;;;16.06;78.14
54172;BME280;40076;52.354;4.970;2023-05-01T10:50:08;101621.81;;;16.13;78.56
54172;BME280;40076;52.354;4.970;2023-05-01T10:55:44;101626.25;;;16.18;77.99
54172;BME280;40076;52.354;4.970;2023-05-01T10:59:12;101623.31;;;16.23;77.98
54172;BME280;40076;52.354;4.970;2023-05-01T11:04:01;101619.00;;;16.22;75.90
54172;BME280;40076;52.354;4.970;2023-05-01T11:06:28;101624.13;;;16.24;75.38
54172;BME280;40076;52.354;4.970;2023-05-01T11:08:54;101627.63;;;16.24;74.32
54172;BME280;40076;52.354;4.970;2023-05-01T11:14:01;101624.13;;;16.24;69.12
54172;BME280;40076;52.354;4.970;2023-05-01T11:19:02;101622.63;;;16.26;70.08
54172;BME280;40076;52.354;4.970;2023-05-01T11:21:28;101628.53;;;16.28;68.58
54172;BME280;40076;52.354;4.970;2023-05-01T11:23:54;101625.81;;;16.28;67.51
54172;BME280;40076;52.354;4.970;2023-05-01T11:26:21;101626.94;;;16.27;65.47
54172;BME280;40076;52.354;4.970;2023-05-01T11:28:47;101631.94;;;16.25;64.86
54172;BME280;40076;52.354;4.970;2023-05-01T11:31:17;101631.50;;;16.23;65.15
54172;BME280;40076;52.354;4.970;2023-05-01T11:33:43;101635.81;;;16.24;65.12
54172;BME280;40076;52.354;4.970;2023-05-01T11:36:08;101637.63;;;16.20;64.75
54172;BME280;40076;52.354;4.970;2023-05-01T11:38:34;101636.34;;;16.17;64.30
54172;BME280;40076;52.354;4.970;2023-05-01T11:41:01;101637.50;;;16.16;65.06
54172;BME280;40076;52.354;4.970;2023-05-01T11:43:28;101634.78;;;16.16;66.01
54172;BME280;40076;52.354;4.970;2023-05-01T11:45:53;101636.25;;;16.14;67.34
54172;BME280;40076;52.354;4.970;2023-05-01T11:48:19;101634.63;;;16.13;67.44
54172;BME280;40076;52.354;4.970;2023-05-01T11:50:45;101633.03;;;16.12;68.65
54172;BME280;40076;52.354;4.970;2023-05-01T11:53:13;101632.25;;;16.11;71.67
54172;BME280;40076;52.354;4.970;2023-05-01T11:55:39;101635.78;;;16.12;72.15
54172;BME280;40076;52.354;4.970;2023-05-01T11:58:05;101634.97;;;16.11;72.52
54172;BME280;40076;52.354;4.970;2023-05-01T12:00:33;101641.91;;;16.09;73.01
54172;BME280;40076;52.354;4.970;2023-05-01T12:03:01;101635.19;;;16.06;73.72
54172;BME280;40076;52.354;4.970;2023-05-01T12:05:27;101641.31;;;16.03;74.52
54172;BME280;40076;52.354;4.970;2023-05-01T12:08:12;101637.66;;;15.99;75.92
54172;BME280;40076;52.354;4.970;2023-05-01T12:10:41;101634.00;;;15.95;76.65
54172;BME280;40076;52.354;4.970;2023-05-01T12:13:08;101633.09;;;15.91;78.04
54172;BME280;40076;52.354;4.970;2023-05-01T12:15:37;101623.66;;;15.89;79.35
54172;BME280;40076;52.354;4.970;2023-05-01T12:18:03;101628.66;;;15.87;79.71
54172;BME280;40076;52.354;4.970;2023-05-01T12:20:37;101625.66;;;15.79;80.50
54172;BME280;40076;52.354;4.970;2023-05-01T12:23:03;101625.22;;;15.77;79.92
54172;BME280;40076;52.354;4.970;2023-05-01T12:25:30;101628.47;;;15.71;81.42
54172;BME280;40076;52.354;4.970;2023-05-01T12:27:56;101630.41;;;15.70;83.33
54172;BME280;40076;52.354;4.970;2023-05-01T12:30:25;101631.84;;;15.68;84.24
54172;BME280;40076;52.354;4.970;2023-05-01T12:32:51;101624.00;;;15.66;84.55
54172;BME280;40076;52.354;4.970;2023-05-01T12:35:17;101619.38;;;15.67;85.36
54172;BME280;40076;52.354;4.970;2023-05-01T12:37:42;101617.44;;;15.67;86.15
54172;BME280;40076;52.354;4.970;2023-05-01T12:40:14;101610.88;;;15.68;87.25
54172;BME280;40076;52.354;4.970;2023-05-01T12:42:40;101614.84;;;15.71;88.34
54172;BME280;40076;52.354;4.970;2023-05-01T12:45:06;101624.28;;;15.73;89.47
54172;BME280;40076;52.354;4.970;2023-05-01T12:47:36;101613.03;;;15.75;91.36
54172;BME280;40076;52.354;4.970;2023-05-01T12:50:02;101620.88;;;15.76;92.99
54172;BME280;40076;52.354;4.970;2023-05-01T12:52:28;101628.38;;;15.79;91.62
54172;BME280;40076;52.354;4.970;2023-05-01T12:55:01;101627.25;;;15.80;91.75
54172;BME280;40076;52.354;4.970;2023-05-01T12:57:26;101622.59;;;15.81;92.38
54172;BME280;40076;52.354;4.970;2023-05-01T12:59:58;101625.31;;;15.81;92.88
54172;BME280;40076;52.354;4.970;2023-05-01T13:02:29;101624.19;;;15.82;93.27
54172;BME280;40076;52.354;4.970;2023-05-01T13:05:09;101632.38;;;15.82;93.27
54172;BME280;40076;52.354;4.970;2023-05-01T13:07:35;101629.31;;;15.83;93.48
54172;BME280;40076;52.354;4.970;2023-05-01T13:10:02;101629.78;;;15.86;93.99
54172;BME280;40076;52.354;4.970;2023-05-01T13:12:28;101626.38;;;15.89;94.62
54172;BME280;40076;52.354;4.970;2023-05-01T13:14:54;101631.97;;;15.92;93.61